Time;durP1;ratioP1;P1;durP2;ratioP2;P2;SDS_P1;SDS_P2;PMS_P1;PMS_P2;Temp;Humidity;BMP_temperature;BMP_pressure;BME280_temperature;BME280_humidity;BME280_pressure;Samples;Min_cycle;Max_cycle;Signal;HPM_P1;HPM_P2
2022/10/30 00:01:45;;;;;;;11.82;7.10;;;15.10;99.90;;;;;;5030692;28;20091;-63
2022/10/30 00:04:11;;;;;;;11.32;5.90;;;15.00;99.90;;;;;;5029956;28;20053;-57
2022/10/30 00:06:36;;;;;;;13.43;5.53;;;15.00;99.90;;;;;;5029824;28;20539;-59
2022/10/30 00:09:02;;;;;;;9.55;5.03;;;14.80;99.90;;;;;;5029107;28;20034;-65
2022/10/30 00:11:28;;;;;;;10.48;5.30;;;14.80;99.90;;;;;;5031223;28;20053;-54
2022/10/30 00:13:53;;;;;;;8.43;4.55;;;14.80;99.90;;;;;;5030662;28;20033;-56
2022/10/30 00:16:19;;;;;;;9.80;4.65;;;14.70;99.90;;;;;;5032377;28;20500;-59
2022/10/30 00:18:45;;;;;;;8.48;5.00;;;14.70;99.90;;;;;;5029047;28;20030;-53
2022/10/30 00:21:12;;;;;;;11.65;4.78;;;14.60;99.90;;;;;;5031360;28;20474;-59
2022/10/30 00:23:43;;;;;;;10.15;4.68;;;14.60;99.90;;;;;;5030325;28;20153;-55
2022/10/30 00:26:09;;;;;;;9.73;5.10;;;14.50;99.90;;;;;;5030662;28;20113;-63
2022/10/30 00:28:34;;;;;;;9.98;4.90;;;14.50;99.90;;;;;;5029005;28;20112;-57
2022/10/30 00:31:01;;;;;;;8.25;4.78;;;14.40;99.90;;;;;;5031828;28;20745;-60
2022/10/30 00:33:27;;;;;;;11.25;4.90;;;14.40;99.90;;;;;;5030102;28;20021;-61
2022/10/30 00:35:53;;;;;;;10.35;4.63;;;14.30;99.90;;;;;;5026450;28;20128;-53
2022/10/30 00:38:18;;;;;;;11.40;5.32;;;14.30;99.90;;;;;;5021925;28;20022;-55
2022/10/30 00:40:44;;;;;;;11.02;5.05;;;14.20;99.90;;;;;;5028284;28;20065;-56
2022/10/30 00:43:45;;;;;;;8.90;4.75;;;14.20;99.90;;;;;;5029762;28;20022;-56
2022/10/30 00:46:34;;;;;;;10.32;5.13;;;14.10;99.90;;;;;;5010228;28;20058;-56
2022/10/30 00:49:04;;;;;;;9.95;4.68;;;14.10;99.90;;;;;;5011981;28;20034;-56
2022/10/30 00:51:32;;;;;;;11.05;5.13;;;14.10;99.90;;;;;;5014710;28;20045;-55
2022/10/30 00:54:01;;;;;;;10.50;5.00;;;14.00;99.90;;;;;;5014430;28;20018;-53
2022/10/30 00:56:26;;;;;;;12.93;5.35;;;14.00;99.90;;;;;;5014110;28;20087;-56
2022/10/30 00:58:57;;;;;;;10.05;5.28;;;14.00;99.90;;;;;;5011307;28;20054;-56
2022/10/30 01:01:25;;;;;;;11.63;5.53;;;13.90;99.90;;;;;;5018903;28;20044;-58
2022/10/30 01:03:56;;;;;;;10.55;5.07;;;13.90;99.90;;;;;;5017734;28;20109;-56
2022/10/30 01:06:23;;;;;;;8.77;5.15;;;13.90;99.90;;;;;;5014494;28;20390;-51
2022/10/30 01:08:50;;;;;;;10.73;5.13;;;13.90;99.90;;;;;;5013235;28;20026;-56
2022/10/30 01:11:15;;;;;;;9.02;4.95;;;13.90;99.90;;;;;;5014355;28;20034;-53
2022/10/30 01:13:44;;;;;;;11.95;5.22;;;13.90;99.90;;;;;;5013054;28;20034;-50
2022/10/30 01:16:32;;;;;;;11.52;5.47;;;13.90;99.90;;;;;;5014735;28;20022;-61
2022/10/30 01:19:28;;;;;;;9.52;5.05;;;13.90;99.90;;;;;;5012277;28;20018;-52
2022/10/30 01:22:24;;;;;;;12.63;5.57;;;13.90;99.90;;;;;;5014145;28;20030;-53
2022/10/30 01:24:55;;;;;;;11.43;5.28;;;13.90;99.90;;;;;;5013452;28;20022;-51
2022/10/30 01:27:42;;;;;;;9.93;5.45;;;13.80;99.90;;;;;;5013076;28;20061;-55
2022/10/30 01:30:45;;;;;;;9.15;4.55;;;13.80;99.90;;;;;;5011145;28;20049;-54
2022/10/30 01:33:27;;;;;;;10.65;5.32;;;13.80;99.90;;;;;;5015032;28;20057;-51
2022/10/30 01:36:44;;;;;;;10.95;5.30;;;13.80;99.90;;;;;;5013806;28;20057;-53
2022/10/30 01:39:14;;;;;;;10.45;5.43;;;13.80;99.90;;;;;;4966060;28;20085;-53
2022/10/30 01:41:40;;;;;;;11.18;5.85;;;13.70;99.90;;;;;;5011149;28;20127;-51
2022/10/30 01:44:11;;;;;;;11.85;6.47;;;13.80;99.90;;;;;;5011979;28;20057;-57
2022/10/30 01:47:42;;;;;;;10.13;5.40;;;13.80;99.90;;;;;;5029816;28;20073;-55
2022/10/30 01:50:30;;;;;;;8.70;5.30;;;13.70;99.90;;;;;;5005891;28;20037;-55
2022/10/30 01:53:25;;;;;;;15.82;6.50;;;13.70;99.90;;;;;;5010820;28;20041;-57
2022/10/30 01:56:17;;;;;;;12.82;6.43;;;13.70;99.90;;;;;;5026228;28;20480;-61
2022/10/30 01:58:55;;;;;;;17.50;8.65;;;13.70;99.90;;;;;;5021132;28;20037;-61
2022/10/30 02:01:22;;;;;;;17.48;8.25;;;13.60;99.90;;;;;;5032399;28;20025;-55
2022/10/30 02:03:48;;;;;;;21.20;10.25;;;13.60;99.90;;;;;;5032973;28;20033;-63
2022/10/30 02:06:13;;;;;;;23.38;10.95;;;13.50;99.90;;;;;;5029644;28;20026;-62
2022/10/30 02:08:39;;;;;;;22.92;10.55;;;13.50;99.90;;;;;;5032070;28;20062;-63
2022/10/30 02:11:05;;;;;;;20.67;9.90;;;13.50;99.90;;;;;;5022424;28;20042;-52
2022/10/30 02:13:31;;;;;;;18.27;9.55;;;13.50;99.90;;;;;;5033273;28;20018;-63
2022/10/30 02:15:58;;;;;;;21.80;9.75;;;13.50;99.90;;;;;;5031526;28;20489;-60
2022/10/30 02:18:24;;;;;;;20.92;8.90;;;13.50;99.90;;;;;;5033539;28;20032;-58
2022/10/30 02:20:50;;;;;;;19.40;9.00;;;13.50;99.90;;;;;;5031049;28;20112;-57
2022/10/30 02:23:17;;;;;;;15.93;8.30;;;13.50;99.90;;;;;;5033334;28;20098;-63
2022/10/30 02:25:44;;;;;;;18.48;9.18;;;13.50;99.90;;;;;;5031707;28;20017;-64
2022/10/30 02:28:10;;;;;;;22.52;9.35;;;13.50;99.90;;;;;;5034234;28;20416;-63
2022/10/30 02:30:37;;;;;;;22.45;9.68;;;13.40;99.90;;;;;;5033178;28;20026;-62
2022/10/30 02:33:02;;;;;;;18.98;9.05;;;13.40;99.90;;;;;;5031228;28;20080;-58
2022/10/30 02:35:29;;;;;;;14.38;7.30;;;13.40;99.90;;;;;;5032494;28;20045;-61
2022/10/30 02:37:54;;;;;;;17.95;8.95;;;13.40;99.90;;;;;;5031163;28;20040;-60
2022/10/30 02:40:20;;;;;;;21.35;9.50;;;13.30;99.90;;;;;;5030179;28;20018;-55
2022/10/30 02:42:52;;;;;;;26.80;12.35;;;13.30;99.90;;;;;;5033578;28;20033;-51
2022/10/30 02:45:17;;;;;;;22.67;10.95;;;13.30;99.90;;;;;;5023177;28;20493;-62
2022/10/30 02:47:43;;;;;;;23.50;10.98;;;13.30;99.90;;;;;;5029638;28;20029;-54
2022/10/30 02:50:09;;;;;;;21.45;10.35;;;13.30;99.90;;;;;;5030271;28;20037;-62
2022/10/30 02:52:34;;;;;;;21.60;10.05;;;13.30;99.90;;;;;;5033224;28;20032;-63
2022/10/30 02:55:00;;;;;;;18.33;8.70;;;13.30;99.90;;;;;;5032956;28;20043;-65
2022/10/30 02:57:25;;;;;;;14.40;7.97;;;13.30;99.90;;;;;;5032562;28;20466;-53
2022/10/30 02:59:51;;;;;;;18.92;7.85;;;13.20;99.90;;;;;;5031743;28;20104;-53
2022/10/30 03:02:18;;;;;;;13.35;7.03;;;13.20;99.90;;;;;;5030558;28;20026;-56
2022/10/30 03:04:43;;;;;;;13.85;7.40;;;13.20;99.90;;;;;;5032684;28;20038;-54
2022/10/30 03:07:09;;;;;;;12.95;7.35;;;13.20;99.90;;;;;;5039463;28;20356;-54
2022/10/30 03:09:35;;;;;;;12.88;6.93;;;13.10;99.90;;;;;;5036083;28;20094;-58
2022/10/30 03:12:01;;;;;;;13.40;7.25;;;13.10;99.90;;;;;;5033198;28;20034;-67
2022/10/30 03:14:27;;;;;;;11.38;6.40;;;13.10;99.90;;;;;;5032697;28;20022;-59
2022/10/30 03:16:52;;;;;;;13.25;6.63;;;13.00;99.90;;;;;;5032420;28;20025;-57
2022/10/30 03:19:18;;;;;;;13.60;7.18;;;13.00;99.90;;;;;;5033509;28;20029;-58
2022/10/30 03:21:44;;;;;;;12.57;7.07;;;13.00;99.90;;;;;;5032626;28;20053;-49
2022/10/30 03:24:09;;;;;;;12.82;7.85;;;13.00;99.90;;;;;;5032852;28;20022;-54
2022/10/30 03:26:35;;;;;;;11.43;6.30;;;13.00;99.90;;;;;;5032308;28;20026;-50
2022/10/30 03:29:00;;;;;;;11.07;6.57;;;13.00;99.90;;;;;;5031813;28;20017;-49
2022/10/30 03:31:26;;;;;;;10.25;6.55;;;13.00;99.90;;;;;;5032147;28;20038;-53
2022/10/30 03:33:52;;;;;;;12.05;7.53;;;13.00;99.90;;;;;;5031687;28;20033;-53
2022/10/30 03:36:17;;;;;;;14.05;7.40;;;12.90;99.90;;;;;;5030948;28;20109;-55
2022/10/30 03:38:43;;;;;;;12.88;6.45;;;12.90;99.90;;;;;;5032548;28;20021;-56
2022/10/30 03:41:09;;;;;;;15.07;7.40;;;12.90;99.90;;;;;;5031691;28;20075;-55
2022/10/30 03:43:34;;;;;;;15.43;6.80;;;12.90;99.90;;;;;;5032478;28;20022;-57
2022/10/30 03:46:00;;;;;;;13.02;6.93;;;12.90;99.90;;;;;;5032124;28;20049;-60
2022/10/30 03:48:27;;;;;;;12.20;6.25;;;12.90;99.90;;;;;;5031606;28;20031;-52
2022/10/30 03:50:54;;;;;;;10.88;5.95;;;12.90;99.90;;;;;;5031166;28;20047;-55
2022/10/30 03:53:20;;;;;;;11.10;6.22;;;12.80;99.90;;;;;;5032025;28;20542;-52
2022/10/30 03:55:45;;;;;;;10.60;6.05;;;12.80;99.90;;;;;;5031400;28;20105;-55
2022/10/30 03:58:11;;;;;;;9.95;6.18;;;12.80;99.90;;;;;;5032154;28;20026;-53
2022/10/30 04:00:36;;;;;;;13.52;6.72;;;12.80;99.90;;;;;;5031909;28;20104;-56
2022/10/30 04:03:06;;;;;;;12.00;6.63;;;12.70;99.90;;;;;;5031310;28;20025;-58
2022/10/30 04:05:32;;;;;;;12.27;6.85;;;12.70;99.90;;;;;;5032692;28;20113;-56
2022/10/30 04:08:00;;;;;;;14.48;8.18;;;12.70;99.90;;;;;;5031982;28;20108;-65
2022/10/30 04:10:26;;;;;;;13.20;6.28;;;12.60;99.90;;;;;;5031587;28;20028;-63
2022/10/30 04:12:53;;;;;;;11.93;5.85;;;12.70;99.90;;;;;;5032126;28;20109;-63
2022/10/30 04:15:19;;;;;;;11.18;5.93;;;12.70;99.90;;;;;;5030854;28;20037;-56
2022/10/30 04:17:49;;;;;;;14.57;6.82;;;12.70;99.90;;;;;;5031545;28;20152;-59
2022/10/30 04:20:15;;;;;;;11.25;6.13;;;12.70;99.90;;;;;;5032411;28;20025;-65
2022/10/30 04:22:40;;;;;;;13.90;7.97;;;12.70;99.90;;;;;;5037184;28;20347;-61
2022/10/30 04:25:06;;;;;;;12.95;7.72;;;12.70;99.90;;;;;;5036408;28;20032;-65
2022/10/30 04:27:42;;;;;;;22.33;9.32;;;12.70;99.90;;;;;;5036150;28;20082;-60
2022/10/30 04:30:10;;;;;;;19.42;11.00;;;12.70;99.90;;;;;;5036126;28;20497;-63
2022/10/30 04:32:36;;;;;;;25.88;12.02;;;12.70;99.90;;;;;;5035849;28;20033;-54
2022/10/30 04:35:03;;;;;;;23.83;12.57;;;12.70;99.90;;;;;;5035893;28;20021;-60
2022/10/30 04:37:29;;;;;;;29.10;14.65;;;12.70;99.90;;;;;;5035472;28;20467;-64
2022/10/30 04:39:54;;;;;;;27.70;14.02;;;12.70;99.90;;;;;;5036266;28;20109;-57
2022/10/30 04:42:20;;;;;;;23.63;11.65;;;12.60;99.90;;;;;;5036045;28;20108;-61
2022/10/30 04:44:45;;;;;;;18.92;9.13;;;12.60;99.90;;;;;;5034955;28;20355;-63
2022/10/30 04:47:11;;;;;;;14.45;7.97;;;12.60;99.90;;;;;;5036185;28;20501;-54
2022/10/30 04:49:36;;;;;;;17.45;8.07;;;12.50;99.90;;;;;;5035450;28;20028;-55
2022/10/30 04:52:02;;;;;;;15.65;8.10;;;12.50;99.90;;;;;;5035138;28;20037;-54
2022/10/30 04:54:28;;;;;;;10.82;6.65;;;12.50;99.90;;;;;;5033249;28;20434;-54
2022/10/30 04:56:53;;;;;;;17.27;6.05;;;12.40;99.90;;;;;;5034362;28;20026;-52
2022/10/30 04:59:19;;;;;;;10.73;6.13;;;12.40;99.90;;;;;;5034087;28;20029;-55
2022/10/30 05:01:44;;;;;;;14.27;6.47;;;12.40;99.90;;;;;;5034723;28;20112;-53
2022/10/30 05:04:10;;;;;;;11.20;5.95;;;12.30;99.90;;;;;;5035643;28;20112;-50
2022/10/30 05:06:35;;;;;;;12.55;6.45;;;12.30;99.90;;;;;;5034498;28;20022;-51
2022/10/30 05:09:01;;;;;;;12.80;6.53;;;12.30;99.90;;;;;;5035387;28;20478;-52
2022/10/30 05:11:27;;;;;;;13.48;6.05;;;12.30;99.90;;;;;;5036677;28;20038;-54
2022/10/30 05:13:53;;;;;;;13.18;6.10;;;12.20;99.90;;;;;;5041914;28;20020;-56
2022/10/30 05:16:18;;;;;;;10.80;6.65;;;12.20;99.90;;;;;;5035720;28;20074;-58
2022/10/30 05:18:44;;;;;;;10.70;5.97;;;12.20;99.90;;;;;;5035186;28;20137;-59
2022/10/30 05:21:10;;;;;;;14.38;6.43;;;12.20;99.90;;;;;;5034566;28;20029;-58
2022/10/30 05:23:35;;;;;;;12.07;6.57;;;12.20;99.90;;;;;;5035474;28;20017;-57
2022/10/30 05:26:01;;;;;;;11.95;6.20;;;12.10;99.90;;;;;;5035345;28;20022;-55
2022/10/30 05:28:27;;;;;;;15.15;7.07;;;12.10;99.90;;;;;;5034675;28;20024;-59
2022/10/30 05:30:53;;;;;;;10.60;6.40;;;12.20;99.90;;;;;;5034786;28;20030;-58
2022/10/30 05:33:19;;;;;;;12.40;6.88;;;12.10;99.90;;;;;;5033566;28;20055;-61
2022/10/30 05:35:45;;;;;;;15.27;7.35;;;12.20;99.90;;;;;;5033942;28;20459;-60
2022/10/30 05:38:11;;;;;;;14.35;7.50;;;12.10;99.90;;;;;;5034791;28;20104;-65
2022/10/30 05:40:37;;;;;;;16.25;7.22;;;12.10;99.90;;;;;;5034583;28;20124;-62
2022/10/30 05:43:03;;;;;;;14.60;8.30;;;12.10;99.90;;;;;;5034705;28;20105;-64
2022/10/30 05:45:29;;;;;;;25.60;11.68;;;12.10;99.90;;;;;;5034624;28;20079;-59
2022/10/30 05:47:56;;;;;;;23.77;11.32;;;12.10;99.90;;;;;;5033757;28;20068;-62
2022/10/30 05:50:23;;;;;;;43.67;18.17;;;12.20;99.90;;;;;;5034815;28;20025;-56
2022/10/30 05:52:48;;;;;;;41.40;19.52;;;12.10;99.90;;;;;;5034994;28;20029;-56
2022/10/30 05:55:14;;;;;;;36.65;16.25;;;12.10;99.90;;;;;;5033903;28;20116;-55
2022/10/30 05:57:39;;;;;;;39.10;19.02;;;12.10;99.90;;;;;;5034300;28;20402;-56
2022/10/30 06:00:06;;;;;;;37.90;18.23;;;12.10;99.90;;;;;;5034626;28;20466;-57
2022/10/30 06:02:32;;;;;;;36.75;16.83;;;12.00;99.90;;;;;;5033824;28;20029;-54
2022/10/30 06:04:57;;;;;;;28.30;15.27;;;12.00;99.90;;;;;;5034944;28;20022;-62
2022/10/30 06:07:23;;;;;;;23.15;12.60;;;11.90;99.90;;;;;;5034056;28;20390;-59
2022/10/30 06:09:48;;;;;;;24.33;11.57;;;11.90;99.90;;;;;;5033897;28;20029;-61
2022/10/30 06:12:14;;;;;;;21.60;11.32;;;11.90;99.90;;;;;;5034106;28;20033;-59
2022/10/30 06:14:39;;;;;;;19.52;10.95;;;11.80;99.90;;;;;;5034315;28;20107;-59
2022/10/30 06:17:05;;;;;;;23.42;11.52;;;11.80;99.90;;;;;;5033520;28;20026;-55
2022/10/30 06:19:30;;;;;;;22.67;10.60;;;11.80;99.90;;;;;;5034211;28;20033;-56
2022/10/30 06:21:56;;;;;;;18.45;9.95;;;11.70;99.90;;;;;;5034414;28;20083;-61
2022/10/30 06:24:22;;;;;;;16.08;8.98;;;11.70;99.90;;;;;;5033636;28;20470;-57
2022/10/30 06:26:48;;;;;;;15.20;8.23;;;11.70;99.90;;;;;;5049365;28;20466;-58
2022/10/30 06:29:14;;;;;;;11.75;7.32;;;11.70;99.90;;;;;;5034277;28;20113;-56
2022/10/30 06:31:40;;;;;;;16.58;7.38;;;11.70;99.90;;;;;;5033359;28;20109;-56
2022/10/30 06:34:05;;;;;;;12.05;6.72;;;11.70;99.90;;;;;;5033786;28;20059;-56
2022/10/30 06:36:31;;;;;;;14.63;6.95;;;11.70;99.90;;;;;;5034138;28;20089;-49
2022/10/30 06:38:57;;;;;;;16.38;6.95;;;11.60;99.90;;;;;;5032982;28;20038;-64
2022/10/30 06:41:22;;;;;;;14.13;7.15;;;11.60;99.90;;;;;;5034158;28;20034;-65
2022/10/30 06:43:48;;;;;;;14.02;7.53;;;11.60;99.90;;;;;;5033681;28;20026;-61
2022/10/30 06:46:13;;;;;;;11.30;7.05;;;11.60;99.90;;;;;;5032934;28;20088;-59
2022/10/30 06:48:39;;;;;;;15.77;7.30;;;11.60;99.90;;;;;;5033536;28;20416;-56
2022/10/30 06:51:05;;;;;;;16.73;6.80;;;11.60;99.90;;;;;;5032825;28;20069;-63
2022/10/30 06:53:30;;;;;;;15.15;7.03;;;11.50;99.90;;;;;;5033973;28;20025;-62
2022/10/30 06:56:01;;;;;;;11.25;6.50;;;11.50;99.90;;;;;;5033323;28;20025;-54
2022/10/30 06:58:27;;;;;;;13.23;7.40;;;11.50;99.90;;;;;;5033033;28;20034;-57
2022/10/30 07:00:53;;;;;;;12.30;7.75;;;11.50;99.90;;;;;;5033158;28;20478;-53
2022/10/30 07:03:19;;;;;;;14.25;7.78;;;11.50;99.90;;;;;;5033212;28;20028;-54
2022/10/30 07:05:45;;;;;;;11.38;6.85;;;11.60;99.90;;;;;;5032554;28;20021;-52
2022/10/30 07:08:11;;;;;;;13.25;6.57;;;11.60;99.90;;;;;;5033425;28;20025;-55
2022/10/30 07:10:37;;;;;;;12.25;5.40;;;11.60;99.90;;;;;;5033226;28;20025;-55
2022/10/30 07:13:03;;;;;;;8.60;4.93;;;11.70;99.90;;;;;;5032691;28;20045;-60
2022/10/30 07:15:29;;;;;;;8.85;5.20;;;11.70;99.90;;;;;;5033098;28;20100;-51
2022/10/30 07:18:01;;;;;;;11.27;5.65;;;11.70;99.90;;;;;;5037999;28;20026;-55
2022/10/30 07:20:29;;;;;;;9.57;6.10;;;11.70;99.90;;;;;;5037909;28;20028;-56
2022/10/30 07:22:55;;;;;;;12.50;6.57;;;11.80;99.90;;;;;;5033218;28;20064;-63
2022/10/30 07:25:21;;;;;;;12.10;5.15;;;11.80;99.90;;;;;;5033163;28;20367;-59
2022/10/30 07:27:48;;;;;;;10.13;5.60;;;11.80;99.90;;;;;;5032042;28;20052;-53
2022/10/30 07:30:16;;;;;;;10.90;6.45;;;11.90;99.90;;;;;;5032850;28;20100;-55
2022/10/30 07:32:42;;;;;;;14.15;6.68;;;11.90;99.90;;;;;;5031855;28;20072;-59
2022/10/30 07:35:10;;;;;;;13.23;6.72;;;11.90;99.90;;;;;;5031949;28;20061;-57
2022/10/30 07:37:36;;;;;;;10.55;6.18;;;12.00;99.90;;;;;;5031421;28;20071;-57
2022/10/30 07:40:01;;;;;;;10.25;6.38;;;12.00;99.90;;;;;;5032942;28;20148;-56
2022/10/30 07:42:27;;;;;;;9.85;6.22;;;12.00;99.90;;;;;;5031617;28;20026;-58
2022/10/30 07:44:52;;;;;;;11.82;5.93;;;12.10;99.90;;;;;;5032462;28;20026;-56
2022/10/30 07:47:18;;;;;;;10.40;6.05;;;12.20;99.90;;;;;;5031757;28;20601;-59
2022/10/30 07:49:44;;;;;;;11.85;5.95;;;12.20;99.90;;;;;;5032376;28;20025;-58
2022/10/30 07:52:09;;;;;;;13.30;6.78;;;12.20;99.90;;;;;;5032552;28;20068;-57
2022/10/30 07:54:35;;;;;;;11.15;6.40;;;12.20;99.90;;;;;;5031418;28;20021;-61
2022/10/30 07:57:02;;;;;;;11.25;7.13;;;12.30;99.90;;;;;;5031961;28;20032;-57
2022/10/30 07:59:27;;;;;;;11.65;6.53;;;12.30;99.90;;;;;;5031805;28;20032;-60
2022/10/30 08:01:53;;;;;;;10.80;6.53;;;12.40;99.90;;;;;;5031799;28;20033;-52
2022/10/30 08:04:18;;;;;;;11.73;6.97;;;12.40;99.90;;;;;;5031443;28;20022;-51
2022/10/30 08:06:44;;;;;;;20.02;11.02;;;12.50;99.90;;;;;;5032606;28;20052;-51
2022/10/30 08:09:09;;;;;;;23.40;12.45;;;12.50;99.90;;;;;;5030305;28;20017;-55
2022/10/30 08:11:35;;;;;;;18.02;10.95;;;12.60;99.90;;;;;;5030637;28;20112;-58
2022/10/30 08:14:01;;;;;;;18.08;10.43;;;12.60;99.90;;;;;;5031467;28;20136;-55
2022/10/30 08:16:27;;;;;;;16.65;8.85;;;12.70;99.90;;;;;;5031128;28;20032;-54
2022/10/30 08:18:53;;;;;;;17.10;9.95;;;12.80;99.90;;;;;;5031727;28;20022;-58
2022/10/30 08:21:19;;;;;;;14.25;8.75;;;12.80;99.90;;;;;;5030958;28;20039;-55
2022/10/30 08:23:45;;;;;;;11.20;6.97;;;12.90;99.90;;;;;;5031765;28;20100;-51
2022/10/30 08:26:10;;;;;;;13.13;8.68;;;13.00;99.90;;;;;;5031398;28;20053;-50
2022/10/30 08:28:36;;;;;;;12.00;7.85;;;13.00;99.90;;;;;;5031220;28;20021;-61
2022/10/30 08:31:02;;;;;;;15.40;8.32;;;13.10;99.90;;;;;;5031245;28;20040;-54
2022/10/30 08:33:28;;;;;;;16.75;7.97;;;13.10;99.90;;;;;;5032171;28;20068;-58
2022/10/30 08:35:56;;;;;;;16.23;9.55;;;13.20;99.90;;;;;;5031839;28;20045;-59
2022/10/30 08:38:23;;;;;;;21.30;10.77;;;13.30;99.90;;;;;;5031137;28;20351;-52
2022/10/30 08:40:48;;;;;;;28.30;15.18;;;13.30;99.90;;;;;;5032038;28;20026;-58
2022/10/30 08:43:14;;;;;;;24.42;13.95;;;13.40;99.90;;;;;;5031934;28;20029;-59
2022/10/30 08:45:40;;;;;;;21.30;11.75;;;13.50;99.90;;;;;;5031214;28;20046;-61
2022/10/30 08:48:08;;;;;;;15.98;9.73;;;13.50;99.90;;;;;;5030328;28;20065;-51
2022/10/30 08:50:34;;;;;;;24.30;11.90;;;13.60;99.90;;;;;;5027932;28;20626;-61
2022/10/30 08:53:05;;;;;;;22.77;11.43;;;13.70;99.90;;;;;;5031234;28;20029;-63
2022/10/30 08:55:31;;;;;;;;;;;13.80;99.90;;;;;;5030219;28;20026;-61
2022/10/30 08:57:57;;;;;;;22.38;12.73;;;13.80;99.90;;;;;;5030995;28;19952;-61
2022/10/30 09:00:23;;;;;;;20.90;12.50;;;13.90;99.90;;;;;;5031990;28;20032;-60
2022/10/30 09:02:49;;;;;;;21.02;11.93;;;13.90;99.90;;;;;;5031424;28;20021;-53
2022/10/30 09:05:15;;;;;;;18.90;10.90;;;14.00;99.90;;;;;;5030849;28;20028;-55
2022/10/30 09:07:40;;;;;;;16.65;9.68;;;14.10;99.90;;;;;;5033708;28;20108;-54
2022/10/30 09:10:06;;;;;;;18.50;9.02;;;14.10;99.90;;;;;;5035401;28;20025;-55
2022/10/30 09:12:32;;;;;;;16.20;9.48;;;14.20;99.90;;;;;;5035185;28;20033;-58
2022/10/30 09:14:58;;;;;;;16.60;9.95;;;14.20;99.90;;;;;;5034991;28;20022;-54
2022/10/30 09:17:24;;;;;;;15.15;9.18;;;14.20;99.90;;;;;;5035020;28;20029;-58
2022/10/30 09:19:49;;;;;;;16.77;9.48;;;14.20;99.90;;;;;;5034564;28;20032;-52
2022/10/30 09:22:15;;;;;;;14.07;8.60;;;14.30;99.90;;;;;;5035104;28;20104;-53
2022/10/30 09:24:40;;;;;;;25.83;13.20;;;14.30;99.90;;;;;;5057705;28;20079;-56
2022/10/30 09:27:06;;;;;;;24.35;14.63;;;14.40;99.90;;;;;;5037417;28;20351;-56
2022/10/30 09:29:32;;;;;;;18.50;11.85;;;14.40;99.90;;;;;;5034716;28;20017;-54
2022/10/30 09:31:58;;;;;;;20.25;11.57;;;14.40;99.90;;;;;;5034702;28;20163;-61
2022/10/30 09:34:25;;;;;;;25.23;15.80;;;14.50;99.90;;;;;;5034309;28;20018;-53
2022/10/30 09:36:51;;;;;;;23.38;13.55;;;14.50;99.90;;;;;;5034872;28;20018;-53
2022/10/30 09:39:17;;;;;;;19.48;10.70;;;14.50;99.90;;;;;;5034815;28;20375;-56
2022/10/30 09:41:45;;;;;;;18.83;10.32;;;14.50;99.90;;;;;;5034408;28;20106;-55
2022/10/30 09:44:31;;;;;;;25.83;15.40;;;14.60;99.90;;;;;;5034517;28;20018;-61
2022/10/30 09:47:08;;;;;;;29.70;18.75;;;14.70;99.90;;;;;;5032683;28;20084;-66
2022/10/30 09:49:51;;;;;;;29.27;16.40;;;14.70;99.90;;;;;;5034662;28;20609;-60
2022/10/30 09:52:21;;;;;;;20.58;12.20;;;14.80;99.90;;;;;;5033215;28;20046;-68
2022/10/30 09:55:01;;;;;;;19.92;11.73;;;14.80;99.90;;;;;;5029597;28;20026;-61
2022/10/30 09:58:04;;;;;;;20.83;12.60;;;14.90;99.90;;;;;;5031904;28;20028;-68
2022/10/30 10:00:37;;;;;;;21.50;13.32;;;15.00;99.90;;;;;;5035062;28;20178;-59
2022/10/30 10:03:36;;;;;;;17.40;10.10;;;15.10;99.90;;;;;;5033882;28;20545;-68
2022/10/30 10:06:03;;;;;;;15.95;9.55;;;15.20;99.90;;;;;;5027396;28;20281;-57
2022/10/30 10:08:54;;;;;;;21.65;9.13;;;15.20;99.90;;;;;;5031314;28;20075;-59
2022/10/30 10:11:28;;;;;;;17.45;10.57;;;15.30;99.90;;;;;;5031322;28;20036;-57
2022/10/30 10:14:13;;;;;;;23.58;12.90;;;15.40;99.90;;;;;;5026367;28;20205;-59
2022/10/30 10:16:42;;;;;;;14.93;9.77;;;15.40;99.90;;;;;;5013880;28;20026;-57
2022/10/30 10:19:45;;;;;;;19.88;11.63;;;15.50;99.90;;;;;;5013485;28;20443;-57
2022/10/30 10:22:33;;;;;;;23.13;12.32;;;15.60;99.90;;;;;;5013789;28;20029;-51
2022/10/30 10:24:58;;;;;;;23.77;13.10;;;15.70;99.90;;;;;;5020705;28;20025;-67
2022/10/30 10:27:52;;;;;;;24.38;13.23;;;15.80;99.90;;;;;;5033379;28;20075;-60
2022/10/30 10:30:23;;;;;;;33.00;19.08;;;15.90;99.90;;;;;;5033382;28;20080;-58
2022/10/30 10:33:16;;;;;;;31.02;15.00;;;15.90;99.90;;;;;;5033788;28;20096;-68
2022/10/30 10:35:54;;;;;;;24.00;13.38;;;16.00;99.90;;;;;;5032225;28;20061;-61
2022/10/30 10:38:29;;;;;;;23.15;12.20;;;16.10;99.90;;;;;;5033271;28;20025;-67
2022/10/30 10:41:05;;;;;;;18.92;11.98;;;16.20;99.90;;;;;;5032416;28;20037;-63
2022/10/30 10:44:03;;;;;;;24.40;14.13;;;16.30;99.90;;;;;;5033338;28;20026;-64
2022/10/30 10:47:19;;;;;;;23.73;12.25;;;16.40;99.90;;;;;;5031347;28;20097;-65
2022/10/30 10:50:03;;;;;;;18.85;11.52;;;16.60;99.90;;;;;;5016038;28;20037;-58
2022/10/30 10:52:42;;;;;;;20.48;12.20;;;16.80;99.90;;;;;;5032991;28;20077;-62
2022/10/30 10:55:17;;;;;;;16.83;9.98;;;16.90;99.90;;;;;;5034178;28;20053;-61
2022/10/30 10:57:44;;;;;;;18.17;10.00;;;17.00;99.90;;;;;;5014416;28;20184;-66
2022/10/30 11:00:10;;;;;;;12.77;9.23;;;17.00;99.90;;;;;;5013429;28;20014;-56
2022/10/30 11:02:49;;;;;;;20.05;10.63;;;17.00;99.90;;;;;;5025953;28;20190;-65
2022/10/30 11:05:20;;;;;;;17.20;9.57;;;17.00;99.90;;;;;;5030947;28;20040;-63
2022/10/30 11:07:48;;;;;;;15.93;9.57;;;17.00;99.90;;;;;;5033111;28;20040;-54
2022/10/30 11:10:16;;;;;;;20.15;10.38;;;17.00;99.90;;;;;;5031124;28;20034;-54
2022/10/30 11:12:42;;;;;;;17.92;9.75;;;17.10;99.90;;;;;;5031285;28;20417;-52
2022/10/30 11:15:25;;;;;;;14.57;8.63;;;17.10;99.90;;;;;;5032199;28;20045;-57
2022/10/30 11:17:54;;;;;;;16.85;10.63;;;17.10;99.90;;;;;;5031632;28;20596;-56
2022/10/30 11:20:27;;;;;;;20.23;10.00;;;17.20;99.90;;;;;;5030342;28;20022;-55
2022/10/30 11:22:53;;;;;;;16.25;9.60;;;17.20;99.90;;;;;;5031321;28;20547;-53
2022/10/30 11:25:25;;;;;;;18.65;10.57;;;17.20;99.90;;;;;;5030357;28;20025;-56
2022/10/30 11:27:55;;;;;;;17.48;10.70;;;17.30;99.90;;;;;;5036020;28;20029;-52
2022/10/30 11:30:25;;;;;;;16.40;9.05;;;17.30;99.90;;;;;;5036488;28;20104;-59
2022/10/30 11:32:51;;;;;;;11.98;8.48;;;17.40;99.90;;;;;;5032461;28;20104;-59
2022/10/30 11:35:18;;;;;;;15.57;9.20;;;17.50;99.90;;;;;;5033056;28;20570;-58
2022/10/30 11:38:08;;;;;;;14.90;10.10;;;17.60;99.90;;;;;;5033169;28;20159;-57
2022/10/30 11:40:34;;;;;;;21.35;12.00;;;17.60;99.90;;;;;;5032325;28;20137;-57
2022/10/30 11:43:03;;;;;;;22.17;12.20;;;17.80;99.90;;;;;;5032473;28;20102;-64
2022/10/30 11:45:36;;;;;;;22.30;11.13;;;17.80;99.90;;;;;;5032944;28;20102;-56
2022/10/30 11:48:09;;;;;;;19.42;9.02;;;17.90;99.90;;;;;;5032668;28;20067;-58
2022/10/30 11:50:34;;;;;;;16.73;9.25;;;18.00;99.90;;;;;;5033068;28;20052;-59
2022/10/30 11:53:29;;;;;;;16.95;8.05;;;18.10;99.90;;;;;;5031372;28;20112;-58
2022/10/30 11:55:56;;;;;;;15.55;7.93;;;18.10;99.90;;;;;;5030872;28;20131;-57
2022/10/30 11:58:28;;;;;;;15.40;7.88;;;18.20;99.90;;;;;;5032195;28;20026;-57
2022/10/30 12:01:19;;;;;;;16.88;7.75;;;18.20;99.90;;;;;;5030721;28;20037;-54
2022/10/30 12:03:45;;;;;;;19.83;9.20;;;18.20;99.90;;;;;;5027565;28;20385;-58
2022/10/30 12:06:28;;;;;;;13.65;8.65;;;18.20;99.90;;;;;;5031264;28;20124;-55
2022/10/30 12:09:03;;;;;;;12.82;7.15;;;18.20;99.90;;;;;;5030990;28;20034;-58
2022/10/30 12:11:32;;;;;;;14.18;6.75;;;18.20;99.90;;;;;;5030058;28;20064;-58
2022/10/30 12:13:58;;;;;;;9.85;6.55;;;18.30;99.90;;;;;;5030872;28;20486;-58
2022/10/30 12:16:25;;;;;;;12.65;7.70;;;18.30;99.90;;;;;;5031249;28;20022;-52
2022/10/30 12:19:02;;;;;;;15.68;7.97;;;18.40;99.90;;;;;;5029580;28;20032;-58
2022/10/30 12:21:36;;;;;;;16.25;7.80;;;18.40;99.90;;;;;;5030363;28;20124;-53
2022/10/30 12:24:06;;;;;;;16.10;7.35;;;18.40;99.90;;;;;;5030929;28;20025;-55
2022/10/30 12:26:34;;;;;;;14.13;7.22;;;18.40;99.90;;;;;;5030466;28;20389;-56
2022/10/30 12:29:04;;;;;;;13.63;7.20;;;18.50;99.90;;;;;;5029755;28;20053;-61
2022/10/30 12:31:54;;;;;;;14.17;6.97;;;18.50;99.90;;;;;;5029258;28;20063;-55
2022/10/30 12:34:36;;;;;;;11.80;6.72;;;18.50;99.90;;;;;;5028544;28;20033;-58
2022/10/30 12:37:15;;;;;;;15.23;6.95;;;18.50;99.90;;;;;;5029930;28;20052;-57
2022/10/30 12:39:48;;;;;;;12.43;5.78;;;18.50;99.90;;;;;;5030589;28;20083;-56
2022/10/30 12:42:16;;;;;;;16.70;7.32;;;18.60;99.90;;;;;;5030883;28;20516;-59
2022/10/30 12:45:04;;;;;;;17.27;8.48;;;18.60;99.90;;;;;;5034237;28;20022;-61
2022/10/30 12:47:52;;;;;;;10.52;6.55;;;18.70;99.90;;;;;;5035321;28;20038;-58
2022/10/30 12:50:35;;;;;;;11.40;6.82;;;18.70;99.90;;;;;;5031956;28;20389;-62